Time,TemperatureF,DewpointF,PressureIn,WindDirection,WindDirectionDegrees,WindSpeedMPH,WindSpeedGustMPH,Humidity,HourlyPrecipIn,Conditions,Clouds,dailyrainin,SolarRadiationWatts/m^2,SoftwareType,DateUTC
2013-04-02 00:02:00,45.0,7.0,-100.00,NNW,337,2.0,6.0,21,-99.99,,,0.00,1.000000,,2013-04-02 06:02:00,
2013-04-02 00:12:00,45.0,7.0,-100.00,NNW,337,2.0,6.0,21,-99.99,,,0.00,1.000000,,2013-04-02 06:12:00,
2013-04-02 00:42:00,37.0,10.0,-100.00,NNW,345,2.0,5.0,32,0.00,,,0.00,1.000000,,2013-04-02 06:42:00,
2013-04-02 00:52:00,37.0,10.0,-100.00,NNW,345,2.0,5.0,32,0.00,,,0.00,1.000000,,2013-04-02 06:52:00,
2013-04-02 01:11:00,37.0,10.0,-100.00,NNW,345,2.0,5.0,32,0.00,,,0.00,1.000000,,2013-04-02 07:11:00,
2013-04-02 01:43:00,30.0,9.0,-100.00,NNW,346,1.0,5.0,40,0.00,,,0.00,1.000000,,2013-04-02 07:43:00,
2013-04-02 01:52:00,30.0,9.0,-100.00,NNW,346,1.0,5.0,40,0.00,,,0.00,1.000000,,2013-04-02 07:52:00,
2013-04-02 02:42:00,27.0,9.0,-100.00,NW,324,1.0,3.0,46,-99.99,,,0.00,1.000000,,2013-04-02 08:42:00,
2013-04-02 02:52:00,27.0,9.0,-100.00,NW,324,1.0,3.0,46,-99.99,,,0.00,1.000000,,2013-04-02 08:52:00,
2013-04-02 03:43:00,24.0,8.0,-100.00,NNW,336,2.0,3.0,50,-99.99,,,0.00,1.000000,,2013-04-02 09:43:00,
2013-04-02 03:52:00,24.0,8.0,-100.00,NNW,336,2.0,3.0,50,-99.99,,,0.00,1.000000,,2013-04-02 09:52:00,
2013-04-02 04:42:00,23.0,8.0,-100.00,NNW,343,2.0,4.0,53,-99.99,,,0.00,1.000000,,2013-04-02 10:42:00,
2013-04-02 04:52:00,23.0,8.0,-100.00,NNW,343,2.0,4.0,53,-99.99,,,0.00,1.000000,,2013-04-02 10:52:00,
2013-04-02 05:43:00,22.0,9.0,-100.00,NW,323,1.0,3.0,57,-99.99,,,0.00,1.000000,,2013-04-02 11:43:00,
2013-04-02 05:52:00,22.0,9.0,-100.00,NW,323,1.0,3.0,57,-99.99,,,0.00,1.000000,,2013-04-02 11:52:00,
2013-04-02 06:42:00,22.0,9.0,-100.00,NW,316,1.0,3.0,57,-99.99,,,0.00,1.000000,,2013-04-02 12:42:00,
2013-04-02 06:52:00,22.0,9.0,-100.00,NW,316,1.0,3.0,57,-99.99,,,0.00,1.000000,,2013-04-02 12:52:00,
2013-04-02 07:42:00,21.0,10.0,-100.00,NNW,333,2.0,3.0,61,-99.99,,,0.00,4.000000,,2013-04-02 13:42:00,
2013-04-02 07:52:00,21.0,10.0,-100.00,NNW,333,2.0,3.0,61,-99.99,,,0.00,4.000000,,2013-04-02 13:52:00,
2013-04-02 08:02:00,21.0,10.0,-100.00,NNW,333,2.0,3.0,61,-99.99,,,0.00,4.000000,,2013-04-02 14:02:00,
2013-04-02 08:42:00,36.0,14.0,-100.00,NW,320,3.0,5.0,40,0.00,,,0.00,84.000000,,2013-04-02 14:42:00,
2013-04-02 08:52:00,36.0,14.0,-100.00,NW,320,3.0,5.0,40,0.00,,,0.00,84.000000,,2013-04-02 14:52:00,
2013-04-02 09:02:00,36.0,14.0,-100.00,NW,320,3.0,5.0,40,0.00,,,0.00,84.000000,,2013-04-02 15:02:00,
2013-04-02 09:11:00,36.0,14.0,-100.00,NW,320,3.0,5.0,40,0.00,,,0.00,84.000000,,2013-04-02 15:11:00,
2013-04-02 09:43:00,49.0,16.0,-100.00,NE,52,2.0,6.0,27,0.00,,,0.00,318.000000,,2013-04-02 15:43:00,
2013-04-02 09:57:00,49.0,16.0,-100.00,NE,52,2.0,6.0,27,0.00,,,0.00,318.000000,,2013-04-02 15:57:00,
2013-04-02 10:13:00,49.0,16.0,-100.00,NE,52,2.0,6.0,27,0.00,,,0.00,318.000000,,2013-04-02 16:13:00,
2013-04-02 10:44:00,56.0,20.0,-100.00,ESE,109,4.0,9.0,24,0.00,,,-99.99,354.000000,,2013-04-02 16:44:00,
2013-04-02 10:53:00,56.0,20.0,-100.00,ESE,109,4.0,9.0,24,0.00,,,-99.99,354.000000,,2013-04-02 16:53:00,
2013-04-02 11:04:00,56.0,20.0,-100.00,ESE,109,4.0,9.0,24,0.00,,,-99.99,354.000000,,2013-04-02 17:04:00,
2013-04-02 11:12:00,56.0,20.0,-100.00,ESE,109,4.0,9.0,24,0.00,,,-99.99,354.000000,,2013-04-02 17:12:00,
2013-04-02 11:43:00,60.0,18.0,-100.00,SSW,204,5.0,10.0,19,0.00,,,0.00,797.000000,,2013-04-02 17:43:00,
2013-04-02 11:55:00,60.0,18.0,-100.00,SSW,204,5.0,10.0,19,0.00,,,0.00,797.000000,,2013-04-02 17:55:00,
2013-04-02 12:03:00,60.0,18.0,-100.00,SSW,204,5.0,10.0,19,0.00,,,0.00,797.000000,,2013-04-02 18:03:00,
2013-04-02 12:12:00,60.0,18.0,-100.00,SSW,204,5.0,10.0,19,0.00,,,0.00,797.000000,,2013-04-02 18:12:00,
2013-04-02 12:43:00,61.0,14.0,-100.00,South,176,7.0,13.0,16,0.00,,,0.00,1014.000000,,2013-04-02 18:43:00,
2013-04-02 12:55:00,61.0,14.0,-100.00,South,176,7.0,13.0,16,0.00,,,0.00,1014.000000,,2013-04-02 18:55:00,
2013-04-02 13:02:00,61.0,14.0,-100.00,South,176,7.0,13.0,16,0.00,,,0.00,1014.000000,,2013-04-02 19:02:00,
2013-04-02 13:12:00,61.0,14.0,-100.00,South,176,7.0,13.0,16,0.00,,,0.00,1014.000000,,2013-04-02 19:12:00,
2013-04-02 13:46:00,61.0,10.0,-100.00,SW,216,6.0,17.0,13,0.00,,,0.00,953.000000,,2013-04-02 19:46:00,
2013-04-02 13:55:00,61.0,10.0,-100.00,SW,216,6.0,17.0,13,0.00,,,0.00,953.000000,,2013-04-02 19:55:00,
2013-04-02 14:03:00,61.0,10.0,-100.00,SW,216,6.0,17.0,13,0.00,,,0.00,953.000000,,2013-04-02 20:03:00,
2013-04-02 14:12:00,61.0,10.0,-100.00,SW,216,6.0,17.0,13,0.00,,,0.00,953.000000,,2013-04-02 20:12:00,
2013-04-02 14:44:00,61.0,10.0,-100.00,WSW,248,6.0,13.0,13,0.00,,,0.00,895.000000,,2013-04-02 20:44:00,
2013-04-02 14:54:00,61.0,10.0,-100.00,WSW,248,6.0,13.0,13,0.00,,,0.00,895.000000,,2013-04-02 20:54:00,
2013-04-02 15:03:00,61.0,10.0,-100.00,WSW,248,6.0,13.0,13,0.00,,,0.00,895.000000,,2013-04-02 21:03:00,
2013-04-02 15:12:00,61.0,10.0,-100.00,WSW,248,6.0,13.0,13,0.00,,,0.00,895.000000,,2013-04-02 21:12:00,
2013-04-02 15:44:00,59.0,14.0,-100.00,SW,236,7.0,17.0,17,0.00,,,0.00,669.000000,,2013-04-02 21:44:00,
2013-04-02 15:55:00,59.0,14.0,-100.00,SW,236,7.0,17.0,17,0.00,,,0.00,669.000000,,2013-04-02 21:55:00,
2013-04-02 16:03:00,59.0,14.0,-100.00,SW,236,7.0,17.0,17,0.00,,,0.00,669.000000,,2013-04-02 22:03:00,
2013-04-02 16:13:00,59.0,14.0,-100.00,SW,236,7.0,17.0,17,0.00,,,0.00,669.000000,,2013-04-02 22:13:00,
2013-04-02 16:44:00,57.0,17.0,-100.00,SW,226,7.0,15.0,21,0.00,,,0.00,337.000000,,2013-04-02 22:44:00,
2013-04-02 16:53:00,57.0,17.0,-100.00,SW,226,7.0,15.0,21,0.00,,,0.00,337.000000,,2013-04-02 22:53:00,
2013-04-02 17:02:00,57.0,17.0,-100.00,SW,226,7.0,15.0,21,0.00,,,0.00,337.000000,,2013-04-02 23:02:00,
2013-04-02 17:12:00,57.0,17.0,-100.00,SW,226,7.0,15.0,21,0.00,,,0.00,337.000000,,2013-04-02 23:12:00,
2013-04-02 17:43:00,56.0,19.0,-100.00,West,272,8.0,17.0,23,0.00,,,0.00,315.000000,,2013-04-02 23:43:00,
2013-04-02 17:54:00,56.0,19.0,-100.00,West,272,8.0,17.0,23,0.00,,,0.00,315.000000,,2013-04-02 23:54:00,
2013-04-02 18:02:00,56.0,19.0,-100.00,West,272,8.0,17.0,23,0.00,,,0.00,315.000000,,2013-04-03 00:02:00,
2013-04-02 18:12:00,56.0,19.0,-100.00,West,272,8.0,17.0,23,0.00,,,0.00,315.000000,,2013-04-03 00:12:00,
2013-04-02 18:47:00,51.0,22.0,-100.00,WSW,249,7.0,16.0,32,0.00,,,0.00,143.000000,,2013-04-03 00:47:00,
2013-04-02 18:55:00,51.0,22.0,-100.00,WSW,249,7.0,16.0,32,0.00,,,0.00,143.000000,,2013-04-03 00:55:00,
2013-04-02 19:03:00,51.0,22.0,-100.00,WSW,249,7.0,16.0,32,0.00,,,0.00,143.000000,,2013-04-03 01:03:00,
2013-04-02 19:12:00,51.0,22.0,-100.00,WSW,249,7.0,16.0,32,0.00,,,0.00,143.000000,,2013-04-03 01:12:00,
2013-04-02 19:42:00,48.0,26.0,-100.00,WSW,255,2.0,15.0,42,0.00,,,0.00,63.000000,,2013-04-03 01:42:00,
2013-04-02 19:53:00,48.0,26.0,-100.00,WSW,255,2.0,15.0,42,0.00,,,0.00,63.000000,,2013-04-03 01:53:00,
2013-04-02 20:03:00,48.0,26.0,-100.00,WSW,255,2.0,15.0,42,0.00,,,0.00,63.000000,,2013-04-03 02:03:00,
2013-04-02 20:12:00,48.0,26.0,-100.00,WSW,255,2.0,15.0,42,0.00,,,0.00,63.000000,,2013-04-03 02:12:00,
2013-04-02 20:34:00,40.0,23.0,-100.00,NW,324,1.0,5.0,50,0.00,,,0.00,8.000000,,2013-04-03 02:34:00,
2013-04-02 21:03:00,40.0,23.0,-100.00,NW,324,1.0,5.0,50,0.00,,,0.00,8.000000,,2013-04-03 03:03:00,
2013-04-02 21:13:00,40.0,23.0,-100.00,NW,324,1.0,5.0,50,0.00,,,0.00,8.000000,,2013-04-03 03:13:00,
2013-04-02 21:44:00,33.0,20.0,-100.00,NW,318,3.0,4.0,59,0.00,,,0.00,1.000000,,2013-04-03 03:44:00,
2013-04-02 21:54:00,33.0,20.0,-100.00,NW,318,3.0,4.0,59,0.00,,,0.00,1.000000,,2013-04-03 03:54:00,
2013-04-02 22:43:00,32.0,21.0,-100.00,NW,322,2.0,3.0,63,-99.99,,,0.00,1.000000,,2013-04-03 04:43:00,
2013-04-02 22:53:00,32.0,21.0,-100.00,NW,322,2.0,3.0,63,-99.99,,,0.00,1.000000,,2013-04-03 04:53:00,
2013-04-02 23:12:00,32.0,21.0,-100.00,NW,322,2.0,3.0,63,-99.99,,,0.00,1.000000,,2013-04-03 05:12:00,
2013-04-02 23:42:00,29.0,20.0,-100.00,NNW,332,2.0,4.0,69,0.00,,,0.00,1.000000,,2013-04-03 05:42:00,
2013-04-02 23:52:00,29.0,20.0,-100.00,NNW,332,2.0,4.0,69,0.00,,,0.00,1.000000,,2013-04-03 05:52:00,